Watertown, SD (57201)

9:04 PM CDT on August 03, 2015 (GMT -0500)
Turkey Ridge | | Change Station
CLOSE
Current Station
Personal Weather Station
Location: Watertown, SD
Elevation: 1795 ft
Nearby Weather Stations

Elev 1795 ft 44.91 °N, 97.08 °W | Updated 4 minutes ago

Clear
Clear
69.2 °F
Feels Like 69.2 °F
N
0.0
Wind Variable Wind from NNE
Gusts 2.0 mph

Today
High -- | Low -- °F
--% Chance of Precip.
Yesterday
High -- | Low -- °F
Precip. -- in
6:16 AM 8:52 PM
Waning Gibbous, 82% visible
Pressure 29.94 in
Visibility 10.0 miles
Clouds Clear
Dew Point 53 °F
Humidity 56%
Rainfall 0.00 in
Snow Depth Not available.
UV 0 out of 12
Pollen 6.60 out of 12
Air Quality Not available.
Flu Activity Not available.
METAR KATY 040153Z AUTO 00000KT 10SM CLR 21/11 A2996 RMK AO2 SLP139 T02060111

More Conditions Fewer Conditions

Pressure 29.94 in
Visibility 10.0 miles
Clouds Clear
Dew Point 53 °F
Humidity 56%
Rainfall 0.00 in
Snow Depth Not available.
UV 0 out of 12
Pollen 6.60 out of 12
Air Quality Not available.
Flu Activity Not available.
METAR KATY 040153Z AUTO 00000KT 10SM CLR 21/11 A2996 RMK AO2 SLP139 T02060111

More Conditions Fewer Conditions

10-Day Weather Forecast

×

Almanac

Astronomy

Aug. 03, 2015 Rise Set
Actual Time
Civil Twilight
Nautical Twilight
Astronomical Twilight
Moon
Length of Visible Light
Length of Day
Tomorrow will be .
, % of the Moon is Illuminated

Today's Extremes

State Highs State Lows

Community

WunderPhotos

Upload Photos

1,843,825 photos uploaded!

WunderBlogs® & News

Nearby

Air Quality

  Air Quality AQ Index Pollutant
Not available.

Snow Depth

Station Depth Elevation

Earthquake Activity

City Distance Mag. Time & Date
Minimum magnitude displayed is 2.5.

Coastal Water Temperatures

Place Temperature

Stations

Nearby Weather Stations

Station Location Temp. Windchill Dew Point Humidity Wind Precip. Elev Updated Type